Terminal Aerodrome Forecast
Issued by NWS Mt. Holly, NJ

Home | Current Version | Previous Version | Text Only | Print | Product List | Glossary On
Versions: 1 2 3 4 5 6 7 8 9 10 11 12 13 14 15 16 17
000
FTUS41 KPHI 221500 AAB
TAFABE
TAF AMD
KABE 221506Z 2215/2312 26004KT P6SM BKN025
     FM221800 23006KT P6SM BKN035
     FM222200 21005KT P6SM SCT040
     FM230800 20003KT 4SM BR FEW009=

USA.gov is the U.S. government's official web portal to all federal, state and local government web resources and services.